Time;durP1;ratioP1;P1;durP2;ratioP2;P2;SDS_P1;SDS_P2;PMS_P1;PMS_P2;Temp;Humidity;BMP_temperature;BMP_pressure;BME280_temperature;BME280_humidity;BME280_pressure;Samples;Min_cycle;Max_cycle;Signal;HPM_P1;HPM_P2
2022/03/25 00:01:22;;;;;;;69.15;31.83;;;;;;;7.62;69.60;102847.06;5035080;28;20029;-64
2022/03/25 00:03:48;;;;;;;71.28;30.67;;;;;;;7.60;69.23;102851.66;5046074;28;20029;-63
2022/03/25 00:06:13;;;;;;;61.58;29.92;;;;;;;7.55;69.92;102853.59;5041872;28;20079;-65
2022/03/25 00:08:39;;;;;;;72.68;31.35;;;;;;;7.50;70.38;102850.13;5041309;28;20041;-66
2022/03/25 00:11:04;;;;;;;74.72;30.52;;;;;;;7.51;69.72;102851.03;5040612;28;20556;-64
2022/03/25 00:13:30;;;;;;;76.30;31.65;;;;;;;7.47;69.76;102847.50;5042199;28;20041;-69
2022/03/25 00:15:56;;;;;;;68.82;30.13;;;;;;;7.39;70.27;102849.53;5033018;28;20485;-69
2022/03/25 00:18:22;;;;;;;62.22;29.52;;;;;;;7.32;70.50;102846.13;5044213;28;20037;-64
2022/03/25 00:20:49;;;;;;;65.00;29.40;;;;;;;7.25;71.19;102852.59;5048016;28;20108;-66
2022/03/25 00:23:15;;;;;;;68.00;29.80;;;;;;;7.23;70.55;102857.19;5042543;28;20036;-67
2022/03/25 00:25:40;;;;;;;69.82;30.67;;;;;;;7.23;70.54;102854.47;5039360;28;20494;-70
2022/03/25 00:28:06;;;;;;;68.97;29.20;;;;;;;7.22;70.97;102851.78;5044680;28;20086;-64
2022/03/25 00:30:32;;;;;;;69.38;29.95;;;;;;;7.24;71.27;102855.38;5045666;28;20518;-68
2022/03/25 00:32:57;;;;;;;69.90;29.70;;;;;;;7.18;71.09;102859.13;5030778;28;20029;-70
2022/03/25 00:35:23;;;;;;;67.07;27.75;;;;;;;7.14;71.46;102854.72;5047332;28;20435;-65
2022/03/25 00:37:48;;;;;;;67.95;29.15;;;;;;;7.11;71.45;102855.66;5043010;28;20488;-69
2022/03/25 00:40:13;;;;;;;70.22;28.70;;;;;;;7.05;72.14;102855.84;5031263;28;20318;-66
2022/03/25 00:42:40;;;;;;;66.10;29.35;;;;;;;6.97;72.33;102855.13;5034570;28;20124;-69
2022/03/25 00:45:07;;;;;;;63.95;30.90;;;;;;;6.96;71.87;102852.47;5042584;28;20029;-64
2022/03/25 00:47:36;;;;;;;66.35;28.70;;;;;;;6.95;72.11;102857.00;5032723;28;20060;-63
2022/03/25 00:50:03;;;;;;;59.13;26.40;;;;;;;6.93;71.14;102849.84;5038426;28;20048;-65
2022/03/25 00:52:29;;;;;;;63.08;29.00;;;;;;;6.90;71.41;102856.19;5034221;28;20071;-70
2022/03/25 00:54:54;;;;;;;62.65;29.83;;;;;;;6.85;72.64;102847.31;5033200;28;20034;-66
2022/03/25 00:57:20;;;;;;;69.50;29.35;;;;;;;6.79;72.15;102847.47;5045277;28;20573;-69
2022/03/25 00:59:46;;;;;;;71.53;28.73;;;;;;;6.76;72.48;102851.16;5037988;28;20086;-63
2022/03/25 01:02:12;;;;;;;58.22;26.98;;;;;;;6.73;71.98;102853.91;5031094;28;20389;-67
2022/03/25 01:04:38;;;;;;;70.22;30.50;;;;;;;6.70;72.39;102844.97;5044917;28;20041;-66
2022/03/25 01:07:04;;;;;;;70.60;29.05;;;;;;;6.67;71.54;102848.66;5045201;28;20032;-64
2022/03/25 01:09:29;;;;;;;61.58;28.98;;;;;;;6.64;72.96;102849.63;5039241;28;20480;-63
2022/03/25 01:11:55;;;;;;;64.28;29.30;;;;;;;6.65;73.42;102848.69;5039346;28;20235;-64
2022/03/25 01:14:21;;;;;;;69.63;29.05;;;;;;;6.64;72.62;102855.03;5039968;28;20033;-64
2022/03/25 01:16:47;;;;;;;67.85;29.15;;;;;;;6.57;72.91;102850.69;5031408;28;20037;-66
2022/03/25 01:19:13;;;;;;;70.97;29.90;;;;;;;6.49;72.85;102851.81;5040432;28;20033;-64
2022/03/25 01:21:39;;;;;;;69.63;28.95;;;;;;;6.45;71.59;102853.69;5046112;28;20033;-64
2022/03/25 01:24:05;;;;;;;61.55;27.98;;;;;;;6.44;72.94;102851.03;5040667;28;20079;-67
2022/03/25 01:26:31;;;;;;;66.00;28.42;;;;;;;6.44;72.83;102846.50;5045396;28;20060;-67
2022/03/25 01:28:57;;;;;;;66.13;28.88;;;;;;;6.43;72.61;102854.63;5045494;28;20041;-64
2022/03/25 01:31:22;;;;;;;60.40;27.77;;;;;;;6.37;73.16;102856.56;5044492;28;20155;-67
2022/03/25 01:33:47;;;;;;;72.47;28.27;;;;;;;6.29;73.24;102849.53;5043088;28;20116;-66
2022/03/25 01:36:13;;;;;;;67.45;28.83;;;;;;;6.23;73.37;102849.69;5044061;28;20152;-64
2022/03/25 01:38:39;;;;;;;69.10;28.52;;;;;;;6.18;73.21;102852.47;5034217;28;20451;-66
2022/03/25 01:41:04;;;;;;;65.03;27.95;;;;;;;6.15;73.27;102844.44;5045149;28;20077;-64
2022/03/25 01:43:30;;;;;;;63.00;27.80;;;;;;;6.19;72.93;102843.44;5038812;28;20469;-68
2022/03/25 01:45:56;;;;;;;60.97;28.08;;;;;;;6.14;73.48;102842.66;5040097;28;20243;-64
2022/03/25 01:48:21;;;;;;;56.22;25.58;;;;;;;6.06;73.75;102842.84;5025963;28;20029;-63
2022/03/25 01:50:48;;;;;;;68.15;26.58;;;;;;;6.00;73.03;102836.66;5028166;28;20048;-64
2022/03/25 01:53:15;;;;;;;59.75;26.52;;;;;;;6.00;73.32;102839.38;5030320;28;20017;-64
2022/03/25 01:55:58;;;;;;;59.53;26.52;;;;;;;6.03;72.82;102848.31;5033435;28;20056;-64
2022/03/25 01:58:29;;;;;;;65.78;27.13;;;;;;;6.03;72.28;102851.00;5038666;28;20151;-69
2022/03/25 02:00:56;;;;;;;58.45;24.88;;;;;;;6.00;72.77;102844.78;5045952;28;20136;-70
2022/03/25 02:03:22;;;;;;;64.65;24.48;;;;;;;5.98;72.97;102846.63;5041419;28;20028;-66
2022/03/25 02:05:48;;;;;;;53.85;25.92;;;;;;;5.91;72.42;102842.22;5033731;28;20048;-67
2022/03/25 02:08:15;;;;;;;55.42;25.52;;;;;;;5.84;73.35;102845.06;5044595;28;20029;-66
2022/03/25 02:10:41;;;;;;;55.60;23.90;;;;;;;5.85;72.47;102845.94;5033283;28;20093;-66
2022/03/25 02:13:11;;;;;;;54.58;23.92;;;;;;;5.85;72.48;102851.34;5040452;28;20556;-66
2022/03/25 02:15:43;;;;;;;50.78;23.17;;;;;;;5.86;70.33;102847.72;5026432;28;20090;-69
2022/03/25 02:18:14;;;;;;;57.45;26.08;;;;;;;5.84;71.68;102846.88;5041231;28;20057;-66
2022/03/25 02:20:40;;;;;;;58.78;24.42;;;;;;;5.84;71.87;102846.88;5039645;28;20033;-67
2022/03/25 02:23:09;;;;;;;46.20;21.23;;;;;;;5.81;71.47;102842.41;5033752;28;20021;-69
2022/03/25 02:25:36;;;;;;;56.65;24.33;;;;;;;5.77;71.10;102840.69;5012836;28;20041;-70
2022/03/25 02:28:04;;;;;;;50.97;24.33;;;;;;;5.73;71.23;102844.38;5040577;28;22009;-65
2022/03/25 02:30:31;;;;;;;49.50;23.20;;;;;;;5.69;71.61;102842.69;5038883;28;20028;-66
2022/03/25 02:33:01;;;;;;;56.30;24.17;;;;;;;5.65;71.89;102838.25;5037699;28;20028;-66
2022/03/25 02:35:42;;;;;;;50.38;20.67;;;;;;;5.62;70.74;102839.19;5043995;28;20446;-66
2022/03/25 02:38:08;;;;;;;49.75;21.13;;;;;;;5.59;70.93;102835.66;5025210;28;20055;-66
2022/03/25 02:40:34;;;;;;;49.80;23.67;;;;;;;5.55;71.20;102839.38;5036515;28;20377;-66
2022/03/25 02:42:59;;;;;;;54.80;23.65;;;;;;;5.49;70.98;102834.94;5041051;28;20323;-64
2022/03/25 02:45:25;;;;;;;56.40;23.52;;;;;;;5.49;71.80;102843.06;5033938;28;20037;-64
2022/03/25 02:47:51;;;;;;;57.70;23.42;;;;;;;5.46;71.36;102839.53;5032195;28;20037;-66
2022/03/25 02:50:17;;;;;;;47.92;21.52;;;;;;;5.41;71.07;102842.34;5043028;28;20112;-69
2022/03/25 02:52:43;;;;;;;51.53;22.02;;;;;;;5.38;70.70;102839.69;5044877;28;20400;-69
2022/03/25 02:55:09;;;;;;;56.03;22.25;;;;;;;5.32;71.02;102837.09;5033464;28;20372;-64
2022/03/25 02:57:35;;;;;;;57.40;23.83;;;;;;;5.26;71.10;102840.78;5033001;28;20041;-69
2022/03/25 03:00:03;;;;;;;49.65;22.02;;;;;;;5.23;71.06;102837.28;5029058;28;20515;-63
2022/03/25 03:02:29;;;;;;;47.17;21.40;;;;;;;5.19;70.94;102835.53;5031734;28;20362;-69
2022/03/25 03:04:54;;;;;;;52.47;22.60;;;;;;;5.16;70.88;102838.28;5045209;28;20074;-69
2022/03/25 03:07:20;;;;;;;47.33;22.00;;;;;;;5.09;71.18;102848.31;5044104;28;20080;-66
2022/03/25 03:09:45;;;;;;;48.90;22.52;;;;;;;5.05;71.47;102841.19;5032106;28;20060;-65
2022/03/25 03:12:11;;;;;;;50.67;22.60;;;;;;;5.02;71.32;102844.81;5028350;28;20515;-66
2022/03/25 03:14:36;;;;;;;49.40;22.23;;;;;;;5.01;70.51;102843.03;5028260;28;20156;-69
2022/03/25 03:17:04;;;;;;;49.00;22.25;;;;;;;4.95;71.79;102851.25;5027669;28;20511;-66
2022/03/25 03:19:31;;;;;;;46.72;22.35;;;;;;;4.86;71.74;102846.88;5028593;28;20576;-66
2022/03/25 03:21:57;;;;;;;53.63;21.48;;;;;;;4.82;73.03;102849.66;5028994;28;20041;-66
2022/03/25 03:24:23;;;;;;;50.90;22.83;;;;;;;4.77;72.67;102847.03;5028511;28;20369;-67
2022/03/25 03:26:48;;;;;;;49.20;22.92;;;;;;;4.78;72.24;102851.50;5027378;28;20100;-66
2022/03/25 03:29:14;;;;;;;48.65;21.70;;;;;;;4.77;71.91;102852.44;5028204;28;20439;-64
2022/03/25 03:31:39;;;;;;;53.33;22.60;;;;;;;4.78;71.93;102842.53;5026682;28;20044;-64
2022/03/25 03:34:04;;;;;;;51.72;23.55;;;;;;;4.73;71.68;102839.91;5026363;28;20022;-64
2022/03/25 03:36:30;;;;;;;52.85;22.42;;;;;;;4.72;72.11;102838.13;5028789;28;20026;-69
2022/03/25 03:38:55;;;;;;;52.60;21.30;;;;;;;4.67;71.50;102840.00;5027475;28;20044;-65
2022/03/25 03:41:20;;;;;;;48.50;22.52;;;;;;;4.60;72.55;102844.59;5028146;28;20046;-70
2022/03/25 03:43:46;;;;;;;46.35;22.50;;;;;;;4.55;73.33;102851.84;5029852;28;20033;-63
2022/03/25 03:46:11;;;;;;;52.78;21.02;;;;;;;4.50;72.67;102839.38;5026660;28;20052;-67
2022/03/25 03:48:36;;;;;;;49.28;21.63;;;;;;;4.45;72.69;102836.75;5027115;28;20049;-69
2022/03/25 03:51:02;;;;;;;47.65;21.90;;;;;;;4.41;72.48;102843.09;5028270;28;20021;-64
2022/03/25 03:53:27;;;;;;;57.20;21.88;;;;;;;4.38;72.44;102848.50;5028801;28;20053;-64
2022/03/25 03:55:52;;;;;;;50.67;21.92;;;;;;;4.34;73.41;102857.59;5040163;28;20102;-67
2022/03/25 03:58:18;;;;;;;58.50;21.55;;;;;;;4.31;71.72;102846.84;5042099;28;20433;-68
2022/03/25 04:00:43;;;;;;;46.78;20.98;;;;;;;4.32;72.06;102848.63;5034380;28;20706;-64
2022/03/25 04:03:08;;;;;;;50.15;20.58;;;;;;;4.31;72.07;102853.13;5029055;28;20487;-69
2022/03/25 04:05:34;;;;;;;52.97;21.90;;;;;;;4.27;71.87;102839.72;5045922;28;20041;-63
2022/03/25 04:07:59;;;;;;;47.72;22.48;;;;;;;4.24;71.73;102846.03;5042558;28;20029;-64
2022/03/25 04:10:25;;;;;;;51.47;20.98;;;;;;;4.21;72.00;102848.78;5039170;28;20044;-64
2022/03/25 04:12:50;;;;;;;45.17;21.10;;;;;;;4.20;71.61;102848.81;5043924;28;20041;-66
2022/03/25 04:15:16;;;;;;;47.60;21.88;;;;;;;4.16;72.55;102850.63;5039037;28;20079;-67
2022/03/25 04:17:43;;;;;;;50.33;21.48;;;;;;;4.09;73.01;102859.69;5034311;28;20640;-66
2022/03/25 04:20:11;;;;;;;58.47;23.33;;;;;;;4.03;73.34;102854.41;5042358;28;20045;-64
2022/03/25 04:22:36;;;;;;;53.53;21.48;;;;;;;4.00;72.62;102857.13;5046818;28;20023;-64
2022/03/25 04:25:03;;;;;;;45.15;20.27;;;;;;;3.95;73.26;102853.59;5036713;28;20045;-69
2022/03/25 04:27:28;;;;;;;49.08;20.48;;;;;;;3.89;74.14;102864.47;5047209;28;20221;-70
2022/03/25 04:29:55;;;;;;;47.47;22.13;;;;;;;3.83;73.11;102866.31;5041017;28;20033;-66
2022/03/25 04:32:20;;;;;;;49.70;21.10;;;;;;;3.81;73.00;102864.53;5041274;28;20539;-67
2022/03/25 04:34:45;;;;;;;51.03;23.05;;;;;;;3.81;73.41;102864.53;5046021;28;20029;-63
2022/03/25 04:37:11;;;;;;;53.53;21.88;;;;;;;3.78;74.74;102867.28;5046144;28;20041;-64
2022/03/25 04:39:37;;;;;;;55.45;23.00;;;;;;;3.72;73.75;102864.66;5038868;28;20103;-69
2022/03/25 04:42:03;;;;;;;47.60;22.17;;;;;;;3.68;73.39;102861.09;5040314;28;20041;-66
2022/03/25 04:44:29;;;;;;;52.35;21.98;;;;;;;3.68;73.85;102868.28;5040629;28;20318;-65
2022/03/25 04:46:55;;;;;;;50.13;21.30;;;;;;;3.71;73.92;102861.06;5040544;28;20037;-69
2022/03/25 04:49:21;;;;;;;52.70;23.02;;;;;;;3.71;73.24;102868.25;5026143;28;20045;-64
2022/03/25 04:51:46;;;;;;;53.13;22.70;;;;;;;3.73;73.77;102869.09;5027060;28;20037;-65
2022/03/25 04:54:11;;;;;;;53.58;23.48;;;;;;;3.70;73.80;102866.47;5027922;28;20009;-65
2022/03/25 04:56:37;;;;;;;47.55;21.80;;;;;;;3.64;73.64;102869.22;5030011;28;20321;-65
2022/03/25 04:59:03;;;;;;;45.70;20.90;;;;;;;3.61;73.25;102863.88;5022381;28;20029;-69
2022/03/25 05:01:29;;;;;;;52.20;23.30;;;;;;;3.58;73.56;102868.38;5034372;28;20108;-67
2022/03/25 05:03:54;;;;;;;46.13;20.17;;;;;;;3.56;73.78;102872.91;5034534;28;20120;-69
2022/03/25 05:06:19;;;;;;;54.75;22.30;;;;;;;3.53;73.81;102866.66;5046208;28;20102;-65
2022/03/25 05:08:45;;;;;;;53.95;22.05;;;;;;;3.50;74.52;102872.09;5045665;28;20033;-64
2022/03/25 05:11:10;;;;;;;54.65;23.95;;;;;;;3.48;73.90;102872.06;5038782;28;20128;-66
2022/03/25 05:13:35;;;;;;;54.38;22.30;;;;;;;3.46;73.82;102871.22;5044020;28;20037;-65
2022/03/25 05:16:01;;;;;;;57.60;22.67;;;;;;;3.46;74.32;102867.63;5037695;28;20037;-65
2022/03/25 05:18:26;;;;;;;57.72;23.25;;;;;;;3.45;74.49;102871.22;5031436;28;20400;-64
2022/03/25 05:20:51;;;;;;;55.33;22.63;;;;;;;3.44;74.25;102877.50;5034548;28;20429;-69
2022/03/25 05:23:17;;;;;;;56.20;21.45;;;;;;;3.44;74.23;102874.81;5028284;28;20469;-64
2022/03/25 05:25:42;;;;;;;64.55;24.58;;;;;;;3.44;74.66;102867.63;5029485;28;20393;-66
2022/03/25 05:28:08;;;;;;;45.47;20.98;;;;;;;3.40;73.86;102882.03;5032150;28;20067;-64
2022/03/25 05:30:35;;;;;;;55.63;21.63;;;;;;;3.36;74.74;102874.91;5037046;28;20040;-69
2022/03/25 05:33:01;;;;;;;54.65;23.23;;;;;;;3.30;74.75;102880.31;5026853;28;20013;-66
2022/03/25 05:35:28;;;;;;;51.08;22.17;;;;;;;3.28;74.80;102872.28;5035606;28;20112;-65
2022/03/25 05:37:54;;;;;;;55.45;23.25;;;;;;;3.28;74.66;102879.47;5034880;28;20033;-67
2022/03/25 05:40:22;;;;;;;53.10;23.00;;;;;;;3.28;75.48;102882.16;5035960;28;20060;-64
2022/03/25 05:42:49;;;;;;;56.83;24.33;;;;;;;3.28;74.77;102877.66;5034283;28;20529;-70
2022/03/25 05:45:16;;;;;;;61.88;23.20;;;;;;;3.32;75.40;102878.53;5026293;28;20112;-65
2022/03/25 05:47:41;;;;;;;52.88;23.85;;;;;;;3.35;74.80;102882.97;5027260;28;20037;-69
2022/03/25 05:50:08;;;;;;;60.10;23.98;;;;;;;3.32;75.71;102884.81;5025428;28;20435;-64
2022/03/25 05:52:34;;;;;;;47.13;20.70;;;;;;;3.30;74.50;102886.59;5025177;28;20037;-65
2022/03/25 05:55:00;;;;;;;51.47;21.58;;;;;;;3.32;74.58;102892.88;5026737;28;20033;-65
2022/03/25 05:57:26;;;;;;;56.92;24.60;;;;;;;3.35;75.62;102886.56;5038175;28;20032;-64
2022/03/25 05:59:51;;;;;;;53.58;22.13;;;;;;;3.36;75.57;102888.38;5014014;28;20064;-65
2022/03/25 06:02:16;;;;;;;59.97;22.83;;;;;;;3.43;74.40;102889.19;5038267;28;20029;-64
2022/03/25 06:04:42;;;;;;;54.92;23.05;;;;;;;3.46;74.71;102894.53;5039844;28;20044;-66
2022/03/25 06:07:07;;;;;;;51.88;22.25;;;;;;;3.49;75.65;102897.19;5044352;28;20035;-64
2022/03/25 06:09:33;;;;;;;49.58;22.45;;;;;;;3.51;74.66;102898.97;5032383;28;20108;-68
2022/03/25 06:11:58;;;;;;;54.60;23.17;;;;;;;3.56;75.26;102901.63;5044864;28;20055;-67
2022/03/25 06:14:25;;;;;;;54.88;24.45;;;;;;;3.61;74.21;102898.88;5034931;28;20037;-66
2022/03/25 06:16:51;;;;;;;58.42;25.17;;;;;;;3.67;74.13;102905.06;5040328;28;20649;-66
2022/03/25 06:19:17;;;;;;;65.07;27.73;;;;;;;3.82;74.55;102912.09;5034876;28;20037;-64
2022/03/25 06:21:43;;;;;;;62.72;27.25;;;;;;;4.05;73.94;102915.41;5034722;28;20511;-65
2022/03/25 06:24:08;;;;;;;58.65;23.88;;;;;;;4.20;72.56;102910.75;5022444;28;20025;-67
2022/03/25 06:26:34;;;;;;;52.38;24.50;;;;;;;4.34;72.00;102908.78;5025832;28;20045;-65
2022/03/25 06:28:59;;;;;;;55.60;24.27;;;;;;;4.47;72.58;102909.47;5026934;28;20072;-66
2022/03/25 06:31:25;;;;;;;54.03;23.30;;;;;;;4.48;71.93;102922.06;5035933;28;20423;-65
2022/03/25 06:33:50;;;;;;;62.35;25.30;;;;;;;4.52;72.04;102924.69;5034837;28;20032;-69
2022/03/25 06:36:16;;;;;;;59.60;24.67;;;;;;;4.65;72.65;102928.09;5027779;28;20034;-64
2022/03/25 06:38:42;;;;;;;60.92;27.27;;;;;;;4.76;73.00;102923.44;5026349;28;20068;-67
2022/03/25 06:41:07;;;;;;;58.83;24.92;;;;;;;4.92;71.83;102917.81;5026047;28;20048;-64
2022/03/25 06:43:34;;;;;;;60.25;26.45;;;;;;;5.09;69.83;102922.03;5025840;28;20021;-65
2022/03/25 06:45:59;;;;;;;65.72;25.75;;;;;;;5.41;70.56;102920.59;5026804;28;20042;-65
2022/03/25 06:48:25;;;;;;;60.70;26.15;;;;;;;5.75;69.63;102917.28;5025021;28;20068;-65
2022/03/25 06:50:50;;;;;;;63.70;27.27;;;;;;;6.23;69.60;102911.84;5024607;28;20044;-66
2022/03/25 06:53:16;;;;;;;70.95;27.98;;;;;;;6.87;67.92;102914.00;5034452;28;20041;-66
2022/03/25 06:55:43;;;;;;;67.45;28.10;;;;;;;7.36;66.35;102914.59;5026415;28;20065;-67
2022/03/25 06:58:10;;;;;;;62.53;27.58;;;;;;;7.54;65.60;102913.22;5039830;28;20489;-67
2022/03/25 07:00:36;;;;;;;65.90;29.58;;;;;;;7.84;64.71;102922.34;5032941;28;20041;-67
2022/03/25 07:03:02;;;;;;;71.93;30.98;;;;;;;8.33;63.40;102923.66;5028593;28;20022;-64
2022/03/25 07:05:30;;;;;;;60.83;28.33;;;;;;;8.24;64.01;102923.91;5046916;28;20071;-64
2022/03/25 07:07:56;;;;;;;62.35;29.00;;;;;;;8.63;63.39;102930.91;5046303;28;20021;-65
2022/03/25 07:10:23;;;;;;;65.80;29.40;;;;;;;9.02;60.95;102935.13;5037861;28;20033;-65
2022/03/25 07:12:50;;;;;;;70.95;31.27;;;;;;;9.39;59.74;102930.22;5046725;28;20488;-64
2022/03/25 07:15:16;;;;;;;65.63;29.80;;;;;;;9.45;59.05;102934.56;5044307;28;20037;-67
2022/03/25 07:17:43;;;;;;;71.25;31.60;;;;;;;9.93;59.11;102936.47;5035363;28;20037;-70
2022/03/25 07:20:14;;;;;;;69.28;30.42;;;;;;;9.93;57.71;102937.41;5041505;28;20095;-69
2022/03/25 07:22:43;;;;;;;68.43;31.10;;;;;;;10.40;57.68;102932.06;5046122;28;20039;-67
2022/03/25 07:25:10;;;;;;;70.30;32.80;;;;;;;10.90;55.71;102937.31;5040165;28;20519;-64
2022/03/25 07:27:36;;;;;;;69.45;31.70;;;;;;;11.06;56.00;102932.16;5046227;28;20041;-65
2022/03/25 07:30:02;;;;;;;68.63;33.22;;;;;;;11.21;54.85;102946.97;5041566;28;20392;-69
2022/03/25 07:32:27;;;;;;;71.63;32.90;;;;;;;11.61;54.83;102940.75;5044225;28;20032;-67
2022/03/25 07:34:52;;;;;;;70.28;33.78;;;;;;;11.44;53.51;102941.44;5045338;28;20033;-66
2022/03/25 07:37:18;;;;;;;66.03;31.88;;;;;;;11.12;54.72;102947.34;5045988;28;20066;-70
2022/03/25 07:39:44;;;;;;;67.13;33.15;;;;;;;11.36;56.83;102951.78;5037734;28;20083;-67
2022/03/25 07:42:10;;;;;;;69.88;33.17;;;;;;;11.35;55.05;102949.13;5040056;28;20041;-65
2022/03/25 07:44:37;;;;;;;81.85;36.70;;;;;;;10.93;54.75;102953.56;5037566;28;20110;-64
2022/03/25 07:47:03;;;;;;;73.03;35.25;;;;;;;10.77;55.32;102954.22;5039309;28;20087;-64
2022/03/25 07:49:28;;;;;;;76.72;32.50;;;;;;;10.63;56.13;102960.19;5048683;28;20033;-66
2022/03/25 07:51:53;;;;;;;77.25;37.00;;;;;;;10.48;56.58;102968.00;5049457;28;20040;-65
2022/03/25 07:54:19;;;;;;;72.85;33.22;;;;;;;10.57;56.95;102974.94;5045309;28;20013;-67
2022/03/25 07:56:44;;;;;;;71.07;33.10;;;;;;;10.64;56.53;102976.50;5035412;28;20363;-66
2022/03/25 07:59:11;;;;;;;65.80;32.33;;;;;;;10.54;58.23;102977.78;5037339;28;20116;-67
2022/03/25 08:01:36;;;;;;;69.55;31.33;;;;;;;10.56;56.72;102980.44;5032497;28;20033;-67
2022/03/25 08:04:01;;;;;;;71.63;33.35;;;;;;;10.43;58.17;102982.75;5039839;28;20044;-66
2022/03/25 08:06:27;;;;;;;70.63;34.83;;;;;;;10.28;57.68;102983.31;5048485;28;20037;-64
2022/03/25 08:08:52;;;;;;;71.47;34.30;;;;;;;10.35;58.39;102987.56;5047802;28;20052;-67
2022/03/25 08:11:20;;;;;;;68.85;34.65;;;;;;;10.59;59.72;102983.06;5044681;28;20041;-64
2022/03/25 08:13:48;;;;;;;69.47;33.65;;;;;;;10.58;57.05;102984.88;5041723;28;20033;-64
2022/03/25 08:16:16;;;;;;;62.08;31.95;;;;;;;10.42;55.96;102987.28;5044632;28;20524;-65
2022/03/25 08:18:43;;;;;;;65.43;32.15;;;;;;;10.20;57.24;102994.44;5036532;28;20094;-69
2022/03/25 08:21:08;;;;;;;63.38;32.35;;;;;;;10.04;56.09;102991.38;5048898;28;20049;-64
2022/03/25 08:29:01;;;;;;;60.25;30.20;;;;;;;9.95;56.23;103005.31;5044127;28;20036;-65
2022/03/25 08:31:28;;;;;;;70.03;32.08;;;;;;;9.88;57.05;103009.16;5049140;28;20035;-67
2022/03/25 08:33:54;;;;;;;70.13;29.90;;;;;;;9.93;57.23;103009.91;5033436;28;20111;-63
2022/03/25 08:36:20;;;;;;;61.22;30.83;;;;;;;9.93;56.03;103005.38;5047426;28;20124;-64
2022/03/25 08:38:45;;;;;;;59.38;30.25;;;;;;;10.06;57.36;103003.09;5044521;28;20048;-67
2022/03/25 08:41:11;;;;;;;70.00;30.38;;;;;;;10.09;55.41;103010.25;5035774;28;20025;-65
2022/03/25 08:43:38;;;;;;;95.50;41.15;;;;;;;10.01;56.38;103009.63;5042138;28;20038;-64
2022/03/25 08:46:03;;;;;;;72.03;30.30;;;;;;;10.00;55.56;103006.03;5047453;28;20025;-70
2022/03/25 08:48:30;;;;;;;64.43;29.30;;;;;;;9.98;56.73;103005.22;5043073;28;20037;-69
2022/03/25 08:50:55;;;;;;;67.15;31.38;;;;;;;10.05;57.11;103009.47;5047275;28;20023;-68
2022/03/25 08:53:21;;;;;;;68.97;31.73;;;;;;;10.14;55.32;103009.16;5043631;28;20033;-64
2022/03/25 08:55:47;;;;;;;70.75;32.13;;;;;;;10.18;58.72;103004.50;5031230;28;20033;-66
2022/03/25 08:58:12;;;;;;;70.00;30.98;;;;;;;10.29;55.70;103013.19;5040785;28;20033;-67
2022/03/25 09:00:38;;;;;;;68.55;32.15;;;;;;;10.37;55.91;103016.50;5037512;28;20373;-67
2022/03/25 09:03:05;;;;;;;69.80;31.55;;;;;;;10.51;56.80;103018.72;5035549;28;20064;-69
2022/03/25 09:05:30;;;;;;;66.70;29.35;;;;;;;10.62;55.51;103023.75;5048327;28;20476;-67
2022/03/25 09:07:55;;;;;;;82.40;38.20;;;;;;;10.60;52.67;103018.38;5048557;28;20059;-66
2022/03/25 09:10:21;;;;;;;63.67;32.42;;;;;;;10.83;55.38;103013.91;5039582;28;20037;-66
2022/03/25 09:12:47;;;;;;;62.63;29.90;;;;;;;11.09;52.13;103016.47;5048153;28;20071;-64
2022/03/25 09:15:14;;;;;;;58.67;27.02;;;;;;;11.17;51.81;103018.88;5032489;28;20075;-67
2022/03/25 09:17:41;;;;;;;64.40;28.85;;;;;;;11.23;51.89;103026.81;5037941;28;20045;-63
2022/03/25 09:20:08;;;;;;;62.95;27.15;;;;;;;11.33;52.63;103022.78;5043097;28;20095;-65
2022/03/25 09:22:34;;;;;;;57.00;29.50;;;;;;;11.42;53.94;103021.50;5039617;28;20025;-67
2022/03/25 09:25:01;;;;;;;53.05;27.02;;;;;;;11.52;49.08;103025.66;5031848;28;20041;-66
2022/03/25 09:27:27;;;;;;;57.92;27.38;;;;;;;11.66;49.86;103022.34;5048296;28;20063;-67
2022/03/25 09:29:52;;;;;;;54.92;26.15;;;;;;;11.80;51.31;103024.44;5043332;28;20068;-65
2022/03/25 09:32:18;;;;;;;57.50;27.35;;;;;;;11.92;48.80;103026.69;5044601;28;20037;-64
2022/03/25 09:37:27;;;;;;;52.03;23.25;;;;;;;12.18;48.91;103022.84;5043500;28;20152;-65
2022/03/25 09:39:53;;;;;;;57.97;27.10;;;;;;;12.12;46.86;103032.16;5028442;28;20163;-67
2022/03/25 09:42:19;;;;;;;48.53;22.92;;;;;;;12.08;46.83;103022.38;5043795;28;20041;-70
2022/03/25 09:44:45;;;;;;;56.63;25.58;;;;;;;12.07;48.35;103027.88;5039419;28;20037;-67
2022/03/25 09:47:12;;;;;;;54.90;26.95;;;;;;;12.11;49.00;103019.47;5040669;28;20056;-67
2022/03/25 09:49:38;;;;;;;68.28;27.23;;;;;;;12.24;46.39;103019.84;5046829;28;20476;-64
2022/03/25 09:52:05;;;;;;;59.78;28.00;;;;;;;12.41;46.79;103021.81;5047064;28;20037;-67
2022/03/25 09:54:31;;;;;;;52.85;25.77;;;;;;;12.49;45.17;103019.59;5040316;28;20018;-68
2022/03/25 09:56:56;;;;;;;57.10;27.17;;;;;;;12.50;47.11;103013.22;5034905;28;20190;-64
2022/03/25 09:59:22;;;;;;;59.28;28.33;;;;;;;12.70;46.06;103010.44;5035951;28;20115;-65
2022/03/25 10:01:47;;;;;;;98.32;41.58;;;;;;;12.90;45.90;103020.41;5043219;28;20041;-67
2022/03/25 10:04:39;;;;;;;78.32;31.83;;;;;;;13.13;46.25;103012.97;5037603;28;20031;-68
2022/03/25 10:07:25;;;;;;;61.10;26.80;;;;;;;13.28;44.61;103018.59;5046756;28;20071;-67
2022/03/25 10:10:15;;;;;;;77.95;33.15;;;;;;;13.47;46.23;103012.22;5039065;28;20052;-66
2022/03/25 10:12:43;;;;;;;58.28;24.85;;;;;;;13.65;43.40;102999.47;5047076;28;20045;-70
2022/03/25 10:15:16;;;;;;;57.83;23.48;;;;;;;14.10;43.55;103004.41;5035774;28;20083;-69
2022/03/25 10:18:04;;;;;;;48.88;23.75;;;;;;;14.31;44.22;103005.09;5031854;28;20044;-67
2022/03/25 10:20:52;;;;;;;53.08;22.80;;;;;;;14.37;40.44;103006.66;5047148;28;20040;-64
2022/03/25 10:23:19;;;;;;;45.13;19.80;;;;;;;14.20;39.09;103000.22;5036717;28;20045;-63
2022/03/25 10:25:49;;;;;;;41.00;20.05;;;;;;;14.22;40.42;103005.59;5032907;28;20040;-68
2022/03/25 10:28:28;;;;;;;73.47;32.17;;;;;;;14.36;40.94;102994.81;5044233;28;20453;-64
2022/03/25 10:30:55;;;;;;;43.20;19.10;;;;;;;14.41;36.61;102995.44;5043394;28;20480;-63
2022/03/25 10:33:35;;;;;;;53.50;24.05;;;;;;;14.42;40.02;102999.06;5039008;28;20998;-64
2022/03/25 10:36:08;;;;;;;43.75;20.08;;;;;;;14.32;39.26;102995.94;5046821;28;20059;-68
2022/03/25 10:38:43;;;;;;;47.17;22.42;;;;;;;14.29;39.01;102993.34;5045308;28;20056;-64
2022/03/25 10:41:10;;;;;;;36.70;14.88;;;;;;;14.34;37.07;102993.13;5029295;28;20067;-67
2022/03/25 10:43:47;;;;;;;37.13;17.55;;;;;;;14.38;39.20;102994.72;5041596;28;20471;-68
2022/03/25 10:46:42;;;;;;;29.75;16.17;;;;;;;14.41;39.00;102991.78;5043462;28;20044;-67
2022/03/25 10:49:11;;;;;;;40.13;18.92;;;;;;;14.64;39.08;102988.75;5039108;28;20488;-63
2022/03/25 10:51:39;;;;;;;37.83;18.50;;;;;;;14.83;37.08;102993.16;5046446;28;20044;-67
2022/03/25 10:54:10;;;;;;;51.05;23.65;;;;;;;14.95;37.40;102997.97;5044028;28;20033;-63
2022/03/25 10:56:50;;;;;;;46.05;20.05;;;;;;;14.85;38.64;102992.13;5031117;28;20033;-67
2022/03/25 10:59:25;;;;;;;39.38;20.85;;;;;;;14.85;37.91;102996.72;5033252;28;20504;-67
2022/03/25 11:01:52;;;;;;;40.88;19.35;;;;;;;14.80;37.89;102989.66;5042710;28;20132;-67
2022/03/25 11:04:18;;;;;;;41.58;18.90;;;;;;;15.08;38.07;102981.72;5031153;28;20021;-64
2022/03/25 11:06:45;;;;;;;43.22;21.00;;;;;;;15.08;37.25;102992.69;5032051;28;20171;-69
2022/03/25 11:09:13;;;;;;;45.40;21.05;;;;;;;15.11;40.61;102993.41;5030908;28;20033;-63
2022/03/25 11:11:41;;;;;;;42.05;20.08;;;;;;;15.16;38.26;102972.09;5032857;28;20520;-70
2022/03/25 11:14:08;;;;;;;32.58;17.05;;;;;;;15.32;35.23;102985.78;5033015;28;20094;-70
2022/03/25 11:16:38;;;;;;;40.10;17.85;;;;;;;15.30;35.75;102976.78;5032766;28;20033;-67
2022/03/25 11:19:06;;;;;;;41.33;21.17;;;;;;;15.33;36.26;102979.31;5025214;28;20041;-64
2022/03/25 11:21:33;;;;;;;39.40;19.40;;;;;;;15.43;35.21;102980.53;5026786;28;20029;-64